createdAt,value
2023-08-02T00:01:11.189Z,100156.91
2023-08-02T00:03:37.742Z,100151.03
2023-08-02T00:06:17.525Z,100146.16
2023-08-02T00:08:47.288Z,100147.16
2023-08-02T00:11:19.996Z,100147.56
2023-08-02T00:13:46.829Z,100145.94
2023-08-02T00:16:23.517Z,100140.84
2023-08-02T00:24:19.629Z,100161.31
2023-08-02T00:26:46.294Z,100155.63
2023-08-02T00:29:12.870Z,100141.97
2023-08-02T00:31:47.649Z,100134.41
2023-08-02T00:34:14.056Z,100138.06
2023-08-02T00:36:43.075Z,100128.31
2023-08-02T00:39:14.196Z,100127.88
2023-08-02T00:41:42.713Z,100122.59
2023-08-02T00:44:09.771Z,100118.50
2023-08-02T00:46:39.164Z,100121.72
2023-08-02T00:49:05.712Z,100130.66
2023-08-02T00:51:35.075Z,100125.97
2023-08-02T00:54:03.673Z,100125.16
2023-08-02T00:56:34.806Z,100114.81
2023-08-02T00:59:04.113Z,100117.25
2023-08-02T01:01:30.699Z,100120.09
2023-08-02T01:06:54.841Z,100124.03
2023-08-02T01:09:32.018Z,100114.75
2023-08-02T01:15:08.251Z,100112.13
2023-08-02T01:17:38.634Z,100124.53
2023-08-02T01:20:17.081Z,100128.19
2023-08-02T01:22:43.538Z,100119.09
2023-08-02T01:25:18.051Z,100108.34
2023-08-02T01:28:14.953Z,100109.75
2023-08-02T01:30:46.167Z,100105.69
2023-08-02T01:33:18.887Z,100114.81
2023-08-02T01:35:45.772Z,100115.63
2023-08-02T01:38:12.452Z,100102.81
2023-08-02T01:40:43.545Z,100095.06
2023-08-02T01:43:10.127Z,100080.19
2023-08-02T01:45:36.632Z,100076.72
2023-08-02T01:48:07.709Z,100060.84
2023-08-02T01:50:34.275Z,100070.41
2023-08-02T01:53:00.733Z,100062.94
2023-08-02T01:55:29.805Z,100047.28
2023-08-02T01:58:01.167Z,100058.06
2023-08-02T02:00:27.571Z,100049.31
2023-08-02T02:03:02.014Z,100050.16
2023-08-02T02:05:28.543Z,100046.69
2023-08-02T02:07:58.437Z,100043.81
2023-08-02T02:10:24.858Z,100030.84
2023-08-02T02:12:51.266Z,100025.53
2023-08-02T02:15:23.277Z,100016.41
2023-08-02T02:17:49.901Z,100020.31
2023-08-02T02:20:16.419Z,100019.28
2023-08-02T02:22:51.985Z,100003.41
2023-08-02T02:25:18.437Z,99995.50
2023-08-02T02:27:50.643Z,99982.28
2023-08-02T02:30:17.566Z,99962.19
2023-08-02T02:32:44.252Z,99965.44
2023-08-02T02:35:14.485Z,99965.66
2023-08-02T02:37:41.686Z,99967.25
2023-08-02T02:40:11.822Z,99967.25
2023-08-02T02:42:44.477Z,99964.84
2023-08-02T02:45:14.947Z,99961.16
2023-08-02T02:47:41.441Z,99967.25
2023-08-02T02:50:08.562Z,99966.22
2023-08-02T02:52:35.033Z,99954.88
2023-08-02T02:55:05.423Z,99964.41
2023-08-02T02:57:35.004Z,99959.34
2023-08-02T03:00:06.166Z,99940.03
2023-08-02T03:02:35.701Z,99929.47
2023-08-02T03:05:02.307Z,99928.66
2023-08-02T03:07:33.349Z,99929.66
2023-08-02T03:09:59.796Z,99931.31
2023-08-02T03:12:26.250Z,99927.84
2023-08-02T03:14:57.332Z,99922.34
2023-08-02T03:17:23.801Z,99916.47
2023-08-02T03:19:50.321Z,99913.81
2023-08-02T03:22:19.273Z,99896.97
2023-08-02T03:24:48.549Z,99899.00
2023-08-02T03:27:15.231Z,99892.91
2023-08-02T03:29:41.652Z,99878.09
2023-08-02T03:32:12.112Z,99882.78
2023-08-02T03:34:38.482Z,99872.66
2023-08-02T03:37:13.269Z,99856.41
2023-08-02T03:39:39.778Z,99860.31
2023-08-02T03:42:11.407Z,99861.56
2023-08-02T03:44:40.658Z,99860.53
2023-08-02T03:47:09.291Z,99864.00
2023-08-02T03:49:43.203Z,99856.84
2023-08-02T03:52:09.676Z,99846.06
2023-08-02T03:54:39.685Z,99836.34
2023-08-02T03:57:06.295Z,99849.53
2023-08-02T03:59:32.768Z,99844.47
2023-08-02T04:02:03.592Z,99834.28
2023-08-02T04:04:30.091Z,99827.75
2023-08-02T04:06:56.513Z,99815.53
2023-08-02T04:09:26.245Z,99799.44
2023-08-02T04:11:55.434Z,99800.25
2023-08-02T04:14:21.892Z,99800.03
2023-08-02T04:16:56.677Z,99798.78
2023-08-02T04:19:23.134Z,99801.81
2023-08-02T04:21:55.186Z,99803.41
2023-08-02T04:24:21.647Z,99786.53
2023-08-02T04:26:48.053Z,99779.78
2023-08-02T04:29:18.186Z,99768.19
2023-08-02T04:31:47.715Z,99770.16
2023-08-02T04:34:14.127Z,99752.47
2023-08-02T04:36:49.764Z,99747.56
2023-08-02T04:39:16.638Z,99740.41
2023-08-02T04:41:47.671Z,99731.59
2023-08-02T04:44:18.103Z,99725.31
2023-08-02T04:46:48.782Z,99719.78
2023-08-02T04:49:18.038Z,99714.28
2023-08-02T04:51:46.685Z,99710.38
2023-08-02T04:54:19.488Z,99712.78
2023-08-02T04:56:45.954Z,99693.84
2023-08-02T04:59:17.658Z,99678.78
2023-08-02T05:01:44.572Z,99672.25
2023-08-02T05:04:11.554Z,99667.53
2023-08-02T05:06:47.249Z,99667.09
2023-08-02T05:09:13.729Z,99657.56
2023-08-02T05:11:49.497Z,99659.75
2023-08-02T05:14:15.891Z,99646.06
2023-08-02T05:16:50.793Z,99655.16
2023-08-02T05:19:17.258Z,99656.31
2023-08-02T05:24:23.994Z,99646.09
2023-08-02T05:26:51.816Z,99638.94
2023-08-02T05:29:21.206Z,99631.84
2023-08-02T05:31:50.245Z,99626.66
2023-08-02T05:34:23.037Z,99624.97
2023-08-02T05:36:49.465Z,99603.59
2023-08-02T05:39:19.369Z,99605.75
2023-08-02T05:41:48.813Z,99600.25
2023-08-02T05:44:21.288Z,99597.81
2023-08-02T05:46:49.919Z,99582.66
2023-08-02T05:49:16.428Z,99580.81
2023-08-02T05:51:46.168Z,99572.06
2023-08-02T05:54:17.610Z,99567.59
2023-08-02T05:56:49.765Z,99566.78
2023-08-02T05:59:16.233Z,99568.88
2023-08-02T06:01:42.942Z,99556.66
2023-08-02T06:04:18.090Z,99546.31
2023-08-02T06:06:44.627Z,99539.06
2023-08-02T06:09:14.180Z,99531.59
2023-08-02T06:11:43.708Z,99534.22
2023-08-02T06:14:10.451Z,99536.06
2023-08-02T06:19:19.872Z,99511.34
2023-08-02T06:21:49.457Z,99506.06
2023-08-02T06:24:15.912Z,99491.81
2023-08-02T06:26:47.162Z,99482.97
2023-08-02T06:29:13.894Z,99490.09
2023-08-02T06:31:40.729Z,99488.25
2023-08-02T06:34:19.781Z,99486.63
2023-08-02T06:36:46.320Z,99480.34
2023-08-02T06:39:22.839Z,99481.56
2023-08-02T06:44:33.138Z,99459.41
2023-08-02T06:47:07.281Z,99455.72
2023-08-02T06:49:46.292Z,99448.16
2023-08-02T06:52:13.186Z,99452.72
2023-08-02T06:54:42.740Z,99445.38
2023-08-02T06:57:09.741Z,99444.09
2023-08-02T06:59:36.347Z,99430.19
2023-08-02T07:02:15.852Z,99410.84
2023-08-02T07:04:42.600Z,99392.56
2023-08-02T07:07:10.209Z,99372.94
2023-08-02T07:09:36.736Z,99370.06
2023-08-02T07:12:03.922Z,99370.41
2023-08-02T07:14:35.110Z,99370.84
2023-08-02T07:17:01.683Z,99360.03
2023-08-02T07:19:28.485Z,99349.31
2023-08-02T07:21:59.224Z,99341.34
2023-08-02T07:24:25.719Z,99327.78
2023-08-02T07:26:52.220Z,99324.03
2023-08-02T07:29:22.994Z,99322.38
2023-08-02T07:31:49.558Z,99313.78
2023-08-02T07:34:16.176Z,99306.56
2023-08-02T07:36:51.023Z,99304.72
2023-08-02T07:39:17.559Z,99306.66
2023-08-02T07:41:49.135Z,99309.53
2023-08-02T07:44:18.956Z,99303.91
2023-08-02T07:46:57.129Z,99296.94
2023-08-02T07:49:23.701Z,99285.53
2023-08-02T07:54:42.866Z,99273.13
2023-08-02T07:57:26.356Z,99262.63
2023-08-02T07:59:56.558Z,99262.44
2023-08-02T08:02:25.357Z,99253.78
2023-08-02T08:07:37.228Z,99247.78
2023-08-02T08:10:09.636Z,99244.88
2023-08-02T08:12:41.777Z,99242.47
2023-08-02T08:15:09.923Z,99232.91
2023-08-02T08:17:40.351Z,99229.25
2023-08-02T08:20:15.447Z,99229.78
2023-08-02T08:22:42.013Z,99222.66
2023-08-02T08:25:13.623Z,99221.06
2023-08-02T08:27:42.900Z,99209.97
2023-08-02T08:30:17.348Z,99210.75
2023-08-02T08:32:43.902Z,99208.75
2023-08-02T08:35:10.644Z,99195.09
2023-08-02T08:37:42.220Z,99192.31
2023-08-02T08:40:20.502Z,99198.00
2023-08-02T08:42:52.063Z,99195.78
2023-08-02T08:45:24.149Z,99187.22
2023-08-02T08:47:54.557Z,99182.03
2023-08-02T08:55:51.158Z,99168.75
2023-08-02T08:58:21.068Z,99166.16
2023-08-02T09:00:51.157Z,99168.34
2023-08-02T09:03:20.318Z,99162.38
2023-08-02T09:05:47.702Z,99156.16
2023-08-02T09:08:18.689Z,99165.50
2023-08-02T09:10:47.263Z,99147.75
2023-08-02T09:13:29.141Z,99155.31
2023-08-02T09:16:07.244Z,99152.56
2023-08-02T09:18:50.087Z,99146.53
2023-08-02T09:24:06.151Z,99137.88
2023-08-02T09:26:35.785Z,99109.31
2023-08-02T09:29:11.284Z,99120.34
2023-08-02T09:31:38.438Z,99115.69
2023-08-02T09:34:05.137Z,99113.84
2023-08-02T09:36:36.125Z,99111.69
2023-08-02T09:39:16.614Z,99092.25
2023-08-02T09:42:00.105Z,99093.88
2023-08-02T09:44:29.483Z,99096.84
2023-08-02T09:47:22.390Z,99095.78
2023-08-02T09:50:11.749Z,99098.97
2023-08-02T09:52:43.401Z,99106.13
2023-08-02T09:55:13.744Z,99103.22
2023-08-02T09:57:45.518Z,99086.44
2023-08-02T10:00:16.611Z,99097.06
2023-08-02T10:02:56.204Z,99085.34
2023-08-02T10:05:23.010Z,99089.31
2023-08-02T10:08:01.532Z,99089.81
2023-08-02T10:10:46.704Z,99085.59
2023-08-02T10:13:26.720Z,99083.41
2023-08-02T10:15:58.208Z,99080.34
2023-08-02T10:18:26.231Z,99074.31
2023-08-02T10:21:20.752Z,99068.25
2023-08-02T10:23:48.094Z,99068.81
2023-08-02T10:26:16.086Z,99062.00
2023-08-02T10:28:43.899Z,99052.75
2023-08-02T10:31:14.033Z,99043.38
2023-08-02T10:36:27.705Z,99038.66
2023-08-02T10:38:57.077Z,99034.66
2023-08-02T10:41:31.542Z,99021.19
2023-08-02T10:43:59.099Z,99026.13
2023-08-02T10:46:34.119Z,99017.31
2023-08-02T10:49:21.939Z,99014.00
2023-08-02T10:51:48.543Z,99002.09
2023-08-02T10:54:27.144Z,98987.56
2023-08-02T10:56:56.578Z,98985.91
2023-08-02T10:59:28.896Z,98983.00
2023-08-02T11:02:10.830Z,98986.03
2023-08-02T11:04:45.367Z,98980.03
2023-08-02T11:10:06.284Z,98951.97
2023-08-02T11:12:36.045Z,98961.47
2023-08-02T11:15:05.958Z,98965.75
2023-08-02T11:17:39.709Z,98948.53
2023-08-02T11:20:17.271Z,98967.91
2023-08-02T11:22:44.079Z,98972.06
2023-08-02T11:28:25.565Z,98976.44
2023-08-02T11:31:04.244Z,98981.09
2023-08-02T11:33:32.365Z,98967.59
2023-08-02T11:36:02.977Z,98992.00
2023-08-02T11:38:30.574Z,98984.16
2023-08-02T11:40:57.037Z,98990.00
2023-08-02T11:43:36.807Z,98981.38
2023-08-02T11:46:34.364Z,98985.25
2023-08-02T11:49:15.177Z,98989.53
2023-08-02T11:51:42.691Z,98983.78
2023-08-02T11:54:12.445Z,98984.50
2023-08-02T11:56:39.654Z,98982.25
2023-08-02T11:59:28.421Z,98977.84
2023-08-02T12:01:57.752Z,98981.53
2023-08-02T12:04:46.992Z,98975.69
2023-08-02T12:07:16.680Z,98959.56
2023-08-02T12:09:49.325Z,98956.75
2023-08-02T12:12:21.797Z,98950.81
2023-08-02T12:14:51.275Z,98949.25
2023-08-02T12:17:25.812Z,98949.25
2023-08-02T12:19:52.992Z,98941.44
2023-08-02T12:25:06.101Z,98924.06
2023-08-02T12:27:35.229Z,98923.16
2023-08-02T12:30:18.321Z,98929.72
2023-08-02T12:32:44.866Z,98927.72
2023-08-02T12:35:14.774Z,98927.34
2023-08-02T12:37:44.500Z,98921.47
2023-08-02T12:40:38.128Z,98934.00
2023-08-02T12:43:04.831Z,98932.63
2023-08-02T12:45:31.472Z,98932.00
2023-08-02T12:48:02.985Z,98945.59
2023-08-02T12:50:29.985Z,98950.72
2023-08-02T12:52:56.520Z,98940.03
2023-08-02T12:55:27.645Z,98944.75
2023-08-02T12:57:54.171Z,98932.00
2023-08-02T13:00:20.775Z,98936.03
2023-08-02T13:02:57.875Z,98931.19
2023-08-02T13:05:24.644Z,98942.03
2023-08-02T13:07:53.961Z,98948.88
2023-08-02T13:10:20.532Z,98948.16
2023-08-02T13:12:47.077Z,98948.34
2023-08-02T13:15:16.907Z,98954.91
2023-08-02T13:17:48.892Z,98947.81
2023-08-02T13:20:21.421Z,98962.03
2023-08-02T13:22:47.997Z,98956.25
2023-08-02T13:25:14.571Z,98951.75
2023-08-02T13:27:50.394Z,98962.81
2023-08-02T13:30:16.920Z,98947.81
2023-08-02T13:32:47.772Z,98945.13
2023-08-02T13:35:14.344Z,98947.34
2023-08-02T13:37:41.410Z,98947.41
2023-08-02T13:40:16.154Z,98941.63
2023-08-02T13:42:43.088Z,98945.78
2023-08-02T13:47:53.500Z,98949.75
2023-08-02T13:50:23.274Z,98948.28
2023-08-02T13:52:49.810Z,98956.50
2023-08-02T13:55:24.705Z,98944.69
2023-08-02T13:57:51.351Z,98954.03
2023-08-02T14:00:23.703Z,98951.34
2023-08-02T14:02:50.310Z,98949.06
2023-08-02T14:05:17.143Z,98965.00
2023-08-02T14:07:44.133Z,98956.72
2023-08-02T14:10:13.196Z,98957.03
2023-08-02T14:12:41.329Z,98982.78
2023-08-02T14:15:37.882Z,98984.63
2023-08-02T14:18:04.526Z,98981.25
2023-08-02T14:20:34.459Z,98987.41
2023-08-02T14:23:04.101Z,98979.59
2023-08-02T14:25:34.250Z,98974.09
2023-08-02T14:28:03.209Z,98972.34
2023-08-02T14:30:29.754Z,98971.44
2023-08-02T14:32:56.376Z,98971.28
2023-08-02T14:35:29.210Z,98976.72
2023-08-02T14:37:55.987Z,98990.06
2023-08-02T14:40:25.691Z,98988.47
2023-08-02T14:42:55.191Z,98984.75
2023-08-02T14:45:29.515Z,98981.69
2023-08-02T14:47:56.043Z,98984.59
2023-08-02T14:50:22.702Z,98989.94
2023-08-02T14:52:53.281Z,99001.75
2023-08-02T14:55:19.963Z,98993.44
2023-08-02T14:57:55.890Z,99017.16
2023-08-02T15:00:22.607Z,99001.56
2023-08-02T15:02:49.298Z,99008.28
2023-08-02T15:05:16.982Z,99010.16
2023-08-02T15:07:47.610Z,99017.06
2023-08-02T15:10:19.557Z,99020.84
2023-08-02T15:12:49.786Z,99013.25
2023-08-02T15:15:16.338Z,99017.66
2023-08-02T15:17:51.143Z,99013.91
2023-08-02T15:20:17.827Z,99004.66
2023-08-02T15:25:27.852Z,99004.72
2023-08-02T15:27:56.762Z,99012.19
2023-08-02T15:30:23.252Z,99020.78
2023-08-02T15:32:52.488Z,99016.13
2023-08-02T15:35:22.803Z,99024.66
2023-08-02T15:37:50.054Z,99024.63
2023-08-02T15:40:25.862Z,99033.22
2023-08-02T15:42:54.970Z,99034.84
2023-08-02T15:45:26.852Z,99034.66
2023-08-02T15:47:53.400Z,99032.00
2023-08-02T15:53:04.995Z,99034.53
2023-08-02T15:55:34.398Z,99048.66
2023-08-02T15:58:01.159Z,99049.78
2023-08-02T16:00:32.138Z,99062.41
2023-08-02T16:03:01.096Z,99055.00
2023-08-02T16:05:35.056Z,99055.84
2023-08-02T16:08:01.562Z,99054.75
2023-08-02T16:10:28.151Z,99051.56
2023-08-02T16:12:57.893Z,99053.41
2023-08-02T16:15:27.137Z,99060.28
2023-08-02T16:17:58.924Z,99053.91
2023-08-02T16:20:28.931Z,99055.00
2023-08-02T16:22:56.501Z,99056.31
2023-08-02T16:25:31.397Z,99049.97
2023-08-02T16:27:57.896Z,99049.91
2023-08-02T16:30:27.500Z,99058.69
2023-08-02T16:32:57.221Z,99051.72
2023-08-02T16:35:35.340Z,99047.41
2023-08-02T16:38:01.765Z,99046.56
2023-08-02T16:40:31.507Z,99042.81
2023-08-02T16:43:03.994Z,99046.28
2023-08-02T16:45:33.099Z,99048.94
2023-08-02T16:48:02.201Z,99044.88
2023-08-02T16:50:28.596Z,99040.88
2023-08-02T16:52:58.773Z,99041.97
2023-08-02T16:55:27.934Z,99041.16
2023-08-02T16:57:54.393Z,99037.97
2023-08-02T17:00:25.505Z,99036.66
2023-08-02T17:02:51.967Z,99040.44
2023-08-02T17:05:18.474Z,99033.56
2023-08-02T17:10:36.891Z,99033.25
2023-08-02T17:13:03.420Z,99016.19
2023-08-02T17:15:34.102Z,99019.56
2023-08-02T17:18:04.677Z,99025.19
2023-08-02T17:20:35.624Z,99016.19
2023-08-02T17:23:04.796Z,99022.06
2023-08-02T17:25:31.429Z,99017.28
2023-08-02T17:28:00.852Z,99018.84
2023-08-02T17:30:32.141Z,99016.69
2023-08-02T17:33:01.634Z,99015.69
2023-08-02T17:35:30.882Z,99018.09
2023-08-02T17:38:02.626Z,99010.16
2023-08-02T17:40:36.672Z,99008.13
2023-08-02T17:43:06.394Z,99005.19
2023-08-02T17:45:37.837Z,99004.16
2023-08-02T17:48:12.719Z,99000.94
2023-08-02T17:50:39.477Z,99002.53
2023-08-02T17:53:05.980Z,99001.00
2023-08-02T17:55:33.507Z,99005.81
2023-08-02T17:58:02.731Z,99005.03
2023-08-02T18:03:14.289Z,98993.09
2023-08-02T18:05:42.235Z,98996.56
2023-08-02T18:08:08.755Z,98993.66
2023-08-02T18:10:35.260Z,98993.09
2023-08-02T18:13:05.280Z,98989.63
2023-08-02T18:15:34.729Z,98988.06
2023-08-02T18:18:01.381Z,99000.00
2023-08-02T18:20:30.635Z,98991.25
2023-08-02T18:22:57.043Z,98999.22
2023-08-02T18:25:23.542Z,98997.38
2023-08-02T18:27:50.044Z,98996.59
2023-08-02T18:30:16.528Z,99008.03
2023-08-02T18:32:43.087Z,99004.06
2023-08-02T18:35:15.547Z,99006.97
2023-08-02T18:37:44.423Z,98999.78
2023-08-02T18:40:11.665Z,99000.06
2023-08-02T18:42:42.954Z,99005.66
2023-08-02T18:45:12.569Z,99001.13
2023-08-02T18:47:46.972Z,99006.72
2023-08-02T18:50:19.184Z,99014.13
2023-08-02T18:52:48.421Z,99011.97
2023-08-02T18:55:18.016Z,99015.94
2023-08-02T18:57:44.470Z,99027.00
2023-08-02T19:00:17.498Z,99025.03
2023-08-02T19:02:43.992Z,99020.38
2023-08-02T19:05:22.147Z,99024.00
2023-08-02T19:07:48.605Z,99015.97
2023-08-02T19:10:18.496Z,99011.69
2023-08-02T19:12:49.737Z,99002.94
2023-08-02T19:15:26.472Z,98996.25
2023-08-02T19:17:53.099Z,98996.00
2023-08-02T19:20:24.980Z,98999.41
2023-08-02T19:22:51.446Z,99003.34
2023-08-02T19:25:18.033Z,98998.56
2023-08-02T20:19:55.978Z,98980.50
2023-08-02T20:22:22.388Z,98977.84
2023-08-02T20:24:53.444Z,98975.44
2023-08-02T20:27:23.422Z,98968.88
2023-08-02T20:29:53.887Z,98968.88
2023-08-02T21:24:05.414Z,98943.09
2023-08-02T21:26:32.656Z,98942.03
2023-08-02T22:18:16.731Z,98872.22
2023-08-02T22:20:49.377Z,98880.41
2023-08-02T22:23:16.007Z,98878.88
2023-08-02T22:25:42.492Z,98865.34
2023-08-02T22:28:17.130Z,98876.19
2023-08-02T22:30:43.585Z,98871.44
2023-08-02T22:33:14.003Z,98861.09
2023-08-02T22:35:43.580Z,98860.31
2023-08-02T22:38:14.452Z,98864.78
2023-08-02T22:40:46.477Z,98856.03
2023-08-02T22:43:15.200Z,98867.69
2023-08-02T22:45:47.350Z,98864.78
2023-08-02T22:50:55.177Z,98850.22
2023-08-02T22:53:30.532Z,98861.59
2023-08-02T22:55:57.103Z,98857.91
2023-08-02T22:58:26.784Z,98863.47
2023-08-02T23:00:56.313Z,98860.50
2023-08-02T23:03:43.033Z,98863.97
2023-08-02T23:06:22.943Z,98857.59
2023-08-02T23:09:03.257Z,98868.19
2023-08-02T23:14:16.701Z,98865.00
2023-08-02T23:16:45.972Z,98865.25
2023-08-02T23:19:20.846Z,98859.44
2023-08-02T23:21:47.698Z,98861.28
2023-08-02T23:24:17.386Z,98860.47
2023-08-02T23:26:50.032Z,98854.88
2023-08-02T23:29:16.514Z,98857.75
2023-08-02T23:31:46.089Z,98860.41
2023-08-02T23:34:16.023Z,98864.13
2023-08-02T23:36:47.425Z,98858.00
2023-08-02T23:39:16.940Z,98864.94
2023-08-02T23:41:43.666Z,98868.59
2023-08-02T23:44:13.703Z,98869.66
2023-08-02T23:46:40.301Z,98874.97
2023-08-02T23:49:06.751Z,98879.50
2023-08-02T23:51:37.148Z,98879.50
2023-08-02T23:54:07.293Z,98878.22
2023-08-02T23:56:49.622Z,98884.53
2023-08-02T23:59:18.813Z,98885.59
